sensor_id;sensor_type;location;lat;lon;timestamp;temperature;humidity
20091;DHT22;10205;49.678;6.560;2024-02-28T00:00:30;11.40;70.20
20091;DHT22;10205;49.678;6.560;2024-02-28T00:02:57;11.40;70.20
20091;DHT22;10205;49.678;6.560;2024-02-28T00:05:24;11.40;70.20
20091;DHT22;10205;49.678;6.560;2024-02-28T00:07:51;11.40;70.20
20091;DHT22;10205;49.678;6.560;2024-02-28T00:10:18;11.40;70.30
20091;DHT22;10205;49.678;6.560;2024-02-28T00:12:47;11.30;70.30
20091;DHT22;10205;49.678;6.560;2024-02-28T00:15:14;11.40;70.50
20091;DHT22;10205;49.678;6.560;2024-02-28T00:17:41;11.30;70.40
20091;DHT22;10205;49.678;6.560;2024-02-28T00:20:09;11.30;70.50
20091;DHT22;10205;49.678;6.560;2024-02-28T00:22:37;11.30;70.50
20091;DHT22;10205;49.678;6.560;2024-02-28T00:25:04;11.30;70.60
20091;DHT22;10205;49.678;6.560;2024-02-28T00:27:34;11.30;70.60
20091;DHT22;10205;49.678;6.560;2024-02-28T00:30:03;11.30;70.60
20091;DHT22;10205;49.678;6.560;2024-02-28T00:32:31;11.30;70.80
20091;DHT22;10205;49.678;6.560;2024-02-28T00:34:58;11.30;70.70
20091;DHT22;10205;49.678;6.560;2024-02-28T00:37:26;11.30;70.70
20091;DHT22;10205;49.678;6.560;2024-02-28T00:39:53;11.30;70.70
20091;DHT22;10205;49.678;6.560;2024-02-28T00:42:20;11.30;70.70
20091;DHT22;10205;49.678;6.560;2024-02-28T00:44:47;11.30;70.70
20091;DHT22;10205;49.678;6.560;2024-02-28T00:47:15;11.30;70.80
20091;DHT22;10205;49.678;6.560;2024-02-28T00:49:42;11.20;70.90
20091;DHT22;10205;49.678;6.560;2024-02-28T00:52:10;11.20;70.90
20091;DHT22;10205;49.678;6.560;2024-02-28T00:54:37;11.20;70.90
20091;DHT22;10205;49.678;6.560;2024-02-28T00:57:04;11.20;70.90
20091;DHT22;10205;49.678;6.560;2024-02-28T00:59:31;11.20;71.00
20091;DHT22;10205;49.678;6.560;2024-02-28T01:01:58;11.20;70.80
20091;DHT22;10205;49.678;6.560;2024-02-28T01:04:26;11.20;70.70
20091;DHT22;10205;49.678;6.560;2024-02-28T01:06:53;11.10;71.70
20091;DHT22;10205;49.678;6.560;2024-02-28T01:09:21;11.10;70.80
20091;DHT22;10205;49.678;6.560;2024-02-28T01:11:48;11.10;70.90
20091;DHT22;10205;49.678;6.560;2024-02-28T01:14:16;11.10;71.00
20091;DHT22;10205;49.678;6.560;2024-02-28T01:16:43;11.10;71.00
20091;DHT22;10205;49.678;6.560;2024-02-28T01:19:10;11.00;70.90
20091;DHT22;10205;49.678;6.560;2024-02-28T01:21:39;11.00;70.90
20091;DHT22;10205;49.678;6.560;2024-02-28T01:24:06;11.00;71.10
20091;DHT22;10205;49.678;6.560;2024-02-28T01:26:34;11.00;70.90
20091;DHT22;10205;49.678;6.560;2024-02-28T01:29:01;11.00;70.90
20091;DHT22;10205;49.678;6.560;2024-02-28T01:31:28;11.00;71.10
20091;DHT22;10205;49.678;6.560;2024-02-28T01:33:55;10.90;71.20
20091;DHT22;10205;49.678;6.560;2024-02-28T01:36:23;10.90;71.30
20091;DHT22;10205;49.678;6.560;2024-02-28T01:38:51;10.90;71.30
20091;DHT22;10205;49.678;6.560;2024-02-28T01:41:19;10.90;71.40
20091;DHT22;10205;49.678;6.560;2024-02-28T01:43:46;10.90;71.50
20091;DHT22;10205;49.678;6.560;2024-02-28T01:46:20;10.90;71.50
20091;DHT22;10205;49.678;6.560;2024-02-28T01:48:50;10.90;71.70
20091;DHT22;10205;49.678;6.560;2024-02-28T01:51:17;10.90;71.50
20091;DHT22;10205;49.678;6.560;2024-02-28T01:53:45;10.90;71.50
20091;DHT22;10205;49.678;6.560;2024-02-28T01:56:15;10.90;72.30
20091;DHT22;10205;49.678;6.560;2024-02-28T01:58:46;10.90;71.50
20091;DHT22;10205;49.678;6.560;2024-02-28T02:01:14;10.90;71.60
20091;DHT22;10205;49.678;6.560;2024-02-28T02:03:43;10.90;71.60
20091;DHT22;10205;49.678;6.560;2024-02-28T02:06:10;10.90;71.70
20091;DHT22;10205;49.678;6.560;2024-02-28T02:08:38;10.90;71.70
20091;DHT22;10205;49.678;6.560;2024-02-28T02:11:05;10.80;71.40
20091;DHT22;10205;49.678;6.560;2024-02-28T02:13:34;10.80;71.20
20091;DHT22;10205;49.678;6.560;2024-02-28T02:16:01;10.90;71.10
20091;DHT22;10205;49.678;6.560;2024-02-28T02:18:29;10.80;70.90
20091;DHT22;10205;49.678;6.560;2024-02-28T02:21:01;10.80;70.70
20091;DHT22;10205;49.678;6.560;2024-02-28T02:23:33;10.70;70.80
20091;DHT22;10205;49.678;6.560;2024-02-28T02:26:01;10.70;70.70
20091;DHT22;10205;49.678;6.560;2024-02-28T02:28:28;10.60;70.70
20091;DHT22;10205;49.678;6.560;2024-02-28T02:30:55;10.60;70.70
20091;DHT22;10205;49.678;6.560;2024-02-28T02:33:22;10.60;70.90
20091;DHT22;10205;49.678;6.560;2024-02-28T02:35:49;10.50;71.10
20091;DHT22;10205;49.678;6.560;2024-02-28T02:38:16;10.50;71.30
20091;DHT22;10205;49.678;6.560;2024-02-28T02:40:48;10.50;71.40
20091;DHT22;10205;49.678;6.560;2024-02-28T02:43:15;10.40;71.40
20091;DHT22;10205;49.678;6.560;2024-02-28T02:45:42;10.40;71.00
20091;DHT22;10205;49.678;6.560;2024-02-28T02:48:10;10.40;71.00
20091;DHT22;10205;49.678;6.560;2024-02-28T02:50:39;10.30;71.00
20091;DHT22;10205;49.678;6.560;2024-02-28T02:53:08;10.30;71.00
20091;DHT22;10205;49.678;6.560;2024-02-28T02:55:36;10.30;71.00
20091;DHT22;10205;49.678;6.560;2024-02-28T02:58:04;10.20;71.20
20091;DHT22;10205;49.678;6.560;2024-02-28T03:00:31;10.20;71.70
20091;DHT22;10205;49.678;6.560;2024-02-28T03:02:58;10.10;71.60
20091;DHT22;10205;49.678;6.560;2024-02-28T03:05:25;10.10;71.70
20091;DHT22;10205;49.678;6.560;2024-02-28T03:07:53;10.10;72.00
20091;DHT22;10205;49.678;6.560;2024-02-28T03:10:20;10.10;72.30
20091;DHT22;10205;49.678;6.560;2024-02-28T03:12:47;10.10;72.40
20091;DHT22;10205;49.678;6.560;2024-02-28T03:15:15;10.10;72.50
20091;DHT22;10205;49.678;6.560;2024-02-28T03:17:42;10.10;72.60
20091;DHT22;10205;49.678;6.560;2024-02-28T03:20:10;10.10;72.40
20091;DHT22;10205;49.678;6.560;2024-02-28T03:22:38;10.10;72.30
20091;DHT22;10205;49.678;6.560;2024-02-28T03:25:06;10.10;72.30
20091;DHT22;10205;49.678;6.560;2024-02-28T03:27:34;10.10;71.90
20091;DHT22;10205;49.678;6.560;2024-02-28T03:30:01;10.10;71.80
20091;DHT22;10205;49.678;6.560;2024-02-28T03:32:31;10.10;71.70
20091;DHT22;10205;49.678;6.560;2024-02-28T03:34:58;10.00;71.80
20091;DHT22;10205;49.678;6.560;2024-02-28T03:37:25;10.00;71.90
20091;DHT22;10205;49.678;6.560;2024-02-28T03:39:52;9.90;71.90
20091;DHT22;10205;49.678;6.560;2024-02-28T03:42:19;9.90;72.00
20091;DHT22;10205;49.678;6.560;2024-02-28T03:44:46;9.90;72.30
20091;DHT22;10205;49.678;6.560;2024-02-28T03:47:14;9.90;72.50
20091;DHT22;10205;49.678;6.560;2024-02-28T03:49:42;9.90;72.70
20091;DHT22;10205;49.678;6.560;2024-02-28T03:52:12;9.90;73.00
20091;DHT22;10205;49.678;6.560;2024-02-28T03:54:42;9.90;73.20
20091;DHT22;10205;49.678;6.560;2024-02-28T03:57:09;9.90;73.50
20091;DHT22;10205;49.678;6.560;2024-02-28T03:59:36;9.90;73.40
20091;DHT22;10205;49.678;6.560;2024-02-28T04:02:03;10.00;73.50
20091;DHT22;10205;49.678;6.560;2024-02-28T04:04:30;9.90;73.40
20091;DHT22;10205;49.678;6.560;2024-02-28T04:06:58;10.00;73.60
20091;DHT22;10205;49.678;6.560;2024-02-28T04:09:26;10.00;73.60
20091;DHT22;10205;49.678;6.560;2024-02-28T04:11:54;10.10;73.40
20091;DHT22;10205;49.678;6.560;2024-02-28T04:14:21;10.10;73.40
20091;DHT22;10205;49.678;6.560;2024-02-28T04:16:48;10.10;73.40
20091;DHT22;10205;49.678;6.560;2024-02-28T04:19:16;10.10;73.30
20091;DHT22;10205;49.678;6.560;2024-02-28T04:21:43;10.10;73.20
20091;DHT22;10205;49.678;6.560;2024-02-28T04:24:11;10.20;73.20
20091;DHT22;10205;49.678;6.560;2024-02-28T04:26:37;10.20;73.30
20091;DHT22;10205;49.678;6.560;2024-02-28T04:29:05;10.20;73.20
20091;DHT22;10205;49.678;6.560;2024-02-28T04:31:38;10.20;73.00
20091;DHT22;10205;49.678;6.560;2024-02-28T04:34:05;10.30;72.90
20091;DHT22;10205;49.678;6.560;2024-02-28T04:36:32;10.20;72.70
20091;DHT22;10205;49.678;6.560;2024-02-28T04:38:59;10.30;72.80
20091;DHT22;10205;49.678;6.560;2024-02-28T04:41:28;10.30;72.80
20091;DHT22;10205;49.678;6.560;2024-02-28T04:43:55;10.30;73.00
20091;DHT22;10205;49.678;6.560;2024-02-28T04:46:22;10.30;72.90
20091;DHT22;10205;49.678;6.560;2024-02-28T04:48:49;10.30;73.00
20091;DHT22;10205;49.678;6.560;2024-02-28T04:51:16;10.30;73.00
20091;DHT22;10205;49.678;6.560;2024-02-28T04:53:44;10.30;73.00
20091;DHT22;10205;49.678;6.560;2024-02-28T04:56:11;10.30;72.80
20091;DHT22;10205;49.678;6.560;2024-02-28T04:58:39;10.30;72.80
20091;DHT22;10205;49.678;6.560;2024-02-28T05:01:06;10.40;72.70
20091;DHT22;10205;49.678;6.560;2024-02-28T05:03:33;10.40;72.50
20091;DHT22;10205;49.678;6.560;2024-02-28T05:06:00;10.30;72.20
20091;DHT22;10205;49.678;6.560;2024-02-28T05:08:28;10.30;72.20
20091;DHT22;10205;49.678;6.560;2024-02-28T05:10:55;10.30;72.10
20091;DHT22;10205;49.678;6.560;2024-02-28T05:13:22;10.30;72.20
20091;DHT22;10205;49.678;6.560;2024-02-28T05:15:51;10.30;72.20
20091;DHT22;10205;49.678;6.560;2024-02-28T05:18:18;10.30;72.50
20091;DHT22;10205;49.678;6.560;2024-02-28T05:20:45;10.30;72.50
20091;DHT22;10205;49.678;6.560;2024-02-28T05:23:12;10.30;72.60
20091;DHT22;10205;49.678;6.560;2024-02-28T05:25:40;10.30;72.70
20091;DHT22;10205;49.678;6.560;2024-02-28T05:28:07;10.30;72.70
20091;DHT22;10205;49.678;6.560;2024-02-28T05:30:34;10.30;72.70
20091;DHT22;10205;49.678;6.560;2024-02-28T05:33:04;10.30;72.60
20091;DHT22;10205;49.678;6.560;2024-02-28T05:35:31;10.30;72.70
20091;DHT22;10205;49.678;6.560;2024-02-28T05:37:58;10.30;72.60
20091;DHT22;10205;49.678;6.560;2024-02-28T05:40:25;10.30;72.70
20091;DHT22;10205;49.678;6.560;2024-02-28T05:42:52;10.30;72.60
20091;DHT22;10205;49.678;6.560;2024-02-28T05:45:19;10.30;72.50
20091;DHT22;10205;49.678;6.560;2024-02-28T05:47:46;10.30;72.40
20091;DHT22;10205;49.678;6.560;2024-02-28T05:50:14;10.30;72.30
20091;DHT22;10205;49.678;6.560;2024-02-28T05:52:42;10.30;72.30
20091;DHT22;10205;49.678;6.560;2024-02-28T05:55:09;10.20;72.30
20091;DHT22;10205;49.678;6.560;2024-02-28T05:57:36;10.30;72.30
20091;DHT22;10205;49.678;6.560;2024-02-28T06:00:05;10.20;72.30
20091;DHT22;10205;49.678;6.560;2024-02-28T06:02:35;10.20;72.30
20091;DHT22;10205;49.678;6.560;2024-02-28T06:05:03;10.20;72.20
20091;DHT22;10205;49.678;6.560;2024-02-28T06:07:32;10.20;73.10
20091;DHT22;10205;49.678;6.560;2024-02-28T06:09:59;10.20;72.50
20091;DHT22;10205;49.678;6.560;2024-02-28T06:12:26;10.20;72.50
20091;DHT22;10205;49.678;6.560;2024-02-28T06:14:53;10.10;72.50
20091;DHT22;10205;49.678;6.560;2024-02-28T06:17:21;10.10;72.50
20091;DHT22;10205;49.678;6.560;2024-02-28T06:19:48;10.10;72.50
20091;DHT22;10205;49.678;6.560;2024-02-28T06:22:15;10.10;72.50
20091;DHT22;10205;49.678;6.560;2024-02-28T06:24:45;10.10;72.30
20091;DHT22;10205;49.678;6.560;2024-02-28T06:27:12;10.10;72.20
20091;DHT22;10205;49.678;6.560;2024-02-28T06:29:39;10.10;72.30
20091;DHT22;10205;49.678;6.560;2024-02-28T06:32:07;10.10;72.50
20091;DHT22;10205;49.678;6.560;2024-02-28T06:34:34;10.00;72.30
20091;DHT22;10205;49.678;6.560;2024-02-28T06:37:01;10.00;72.30
20091;DHT22;10205;49.678;6.560;2024-02-28T06:39:29;10.00;72.40
20091;DHT22;10205;49.678;6.560;2024-02-28T06:41:57;10.00;72.60
20091;DHT22;10205;49.678;6.560;2024-02-28T06:44:24;9.90;72.80
20091;DHT22;10205;49.678;6.560;2024-02-28T06:46:51;9.90;73.70
20091;DHT22;10205;49.678;6.560;2024-02-28T06:49:18;9.90;72.80
20091;DHT22;10205;49.678;6.560;2024-02-28T06:51:45;10.00;72.80
20091;DHT22;10205;49.678;6.560;2024-02-28T06:54:12;9.90;72.50
20091;DHT22;10205;49.678;6.560;2024-02-28T06:56:39;9.90;72.70
20091;DHT22;10205;49.678;6.560;2024-02-28T06:59:08;9.90;72.90
20091;DHT22;10205;49.678;6.560;2024-02-28T07:01:35;9.90;73.10
20091;DHT22;10205;49.678;6.560;2024-02-28T07:04:02;9.90;73.20
20091;DHT22;10205;49.678;6.560;2024-02-28T07:06:29;9.80;73.30
20091;DHT22;10205;49.678;6.560;2024-02-28T07:08:56;9.80;73.30
20091;DHT22;10205;49.678;6.560;2024-02-28T07:11:24;9.90;73.10
20091;DHT22;10205;49.678;6.560;2024-02-28T07:13:51;9.80;72.90
20091;DHT22;10205;49.678;6.560;2024-02-28T07:16:19;9.90;72.90
20091;DHT22;10205;49.678;6.560;2024-02-28T07:18:46;9.90;72.90
20091;DHT22;10205;49.678;6.560;2024-02-28T07:21:13;9.90;72.90
20091;DHT22;10205;49.678;6.560;2024-02-28T07:23:40;9.90;73.00
20091;DHT22;10205;49.678;6.560;2024-02-28T07:26:07;9.90;73.10
20091;DHT22;10205;49.678;6.560;2024-02-28T07:28:35;9.90;73.00
20091;DHT22;10205;49.678;6.560;2024-02-28T07:31:02;9.90;72.90
20091;DHT22;10205;49.678;6.560;2024-02-28T07:33:31;9.90;72.80
20091;DHT22;10205;49.678;6.560;2024-02-28T07:35:58;9.90;72.80
20091;DHT22;10205;49.678;6.560;2024-02-28T07:38:26;9.90;72.90
20091;DHT22;10205;49.678;6.560;2024-02-28T07:40:54;9.90;72.90
20091;DHT22;10205;49.678;6.560;2024-02-28T07:43:21;9.90;73.00
20091;DHT22;10205;49.678;6.560;2024-02-28T07:45:48;9.90;73.00
20091;DHT22;10205;49.678;6.560;2024-02-28T07:48:14;9.90;73.10
20091;DHT22;10205;49.678;6.560;2024-02-28T07:50:44;9.90;73.20
20091;DHT22;10205;49.678;6.560;2024-02-28T07:53:11;9.90;73.20
20091;DHT22;10205;49.678;6.560;2024-02-28T07:55:39;9.90;73.00
20091;DHT22;10205;49.678;6.560;2024-02-28T07:58:06;9.90;72.90
20091;DHT22;10205;49.678;6.560;2024-02-28T08:00:34;9.90;72.90
20091;DHT22;10205;49.678;6.560;2024-02-28T08:03:02;9.90;73.00
20091;DHT22;10205;49.678;6.560;2024-02-28T08:05:29;9.90;73.00
20091;DHT22;10205;49.678;6.560;2024-02-28T08:08:00;9.90;73.00
20091;DHT22;10205;49.678;6.560;2024-02-28T08:10:27;9.90;73.00
20091;DHT22;10205;49.678;6.560;2024-02-28T08:12:54;10.00;73.10
20091;DHT22;10205;49.678;6.560;2024-02-28T08:15:21;9.90;72.90
20091;DHT22;10205;49.678;6.560;2024-02-28T08:17:48;10.00;72.70
20091;DHT22;10205;49.678;6.560;2024-02-28T08:20:15;10.00;72.80
20091;DHT22;10205;49.678;6.560;2024-02-28T08:22:42;10.00;72.90
20091;DHT22;10205;49.678;6.560;2024-02-28T08:25:11;9.90;72.80
20091;DHT22;10205;49.678;6.560;2024-02-28T08:27:38;9.90;72.80
20091;DHT22;10205;49.678;6.560;2024-02-28T08:30:06;9.90;72.70
20091;DHT22;10205;49.678;6.560;2024-02-28T08:32:33;9.90;72.50
20091;DHT22;10205;49.678;6.560;2024-02-28T08:35:01;9.90;72.40
20091;DHT22;10205;49.678;6.560;2024-02-28T08:37:29;9.80;72.60
20091;DHT22;10205;49.678;6.560;2024-02-28T08:39:56;9.80;72.80
20091;DHT22;10205;49.678;6.560;2024-02-28T08:42:25;9.80;73.00
20091;DHT22;10205;49.678;6.560;2024-02-28T08:44:52;9.80;73.20
20091;DHT22;10205;49.678;6.560;2024-02-28T08:47:23;9.80;73.20
20091;DHT22;10205;49.678;6.560;2024-02-28T08:49:50;9.80;73.40
20091;DHT22;10205;49.678;6.560;2024-02-28T08:52:18;9.80;73.40
20091;DHT22;10205;49.678;6.560;2024-02-28T08:54:45;9.80;73.20
20091;DHT22;10205;49.678;6.560;2024-02-28T08:57:12;9.80;73.20
20091;DHT22;10205;49.678;6.560;2024-02-28T08:59:41;9.80;73.00
20091;DHT22;10205;49.678;6.560;2024-02-28T09:02:09;9.80;73.10
20091;DHT22;10205;49.678;6.560;2024-02-28T09:04:36;9.80;73.30
20091;DHT22;10205;49.678;6.560;2024-02-28T09:07:04;9.80;73.40
20091;DHT22;10205;49.678;6.560;2024-02-28T09:09:30;9.80;73.60
20091;DHT22;10205;49.678;6.560;2024-02-28T09:12:02;9.80;73.60
20091;DHT22;10205;49.678;6.560;2024-02-28T09:14:29;9.80;73.60
20091;DHT22;10205;49.678;6.560;2024-02-28T09:16:58;9.80;73.40
20091;DHT22;10205;49.678;6.560;2024-02-28T09:19:28;9.80;73.30
20091;DHT22;10205;49.678;6.560;2024-02-28T09:21:56;9.80;73.30
20091;DHT22;10205;49.678;6.560;2024-02-28T09:24:23;9.80;73.30
20091;DHT22;10205;49.678;6.560;2024-02-28T09:26:50;9.90;73.30
20091;DHT22;10205;49.678;6.560;2024-02-28T09:29:17;9.90;73.30
20091;DHT22;10205;49.678;6.560;2024-02-28T09:31:45;9.80;73.10
20091;DHT22;10205;49.678;6.560;2024-02-28T09:34:13;9.90;73.20
20091;DHT22;10205;49.678;6.560;2024-02-28T09:36:41;9.90;74.00
20091;DHT22;10205;49.678;6.560;2024-02-28T09:39:08;9.80;73.10
20091;DHT22;10205;49.678;6.560;2024-02-28T09:41:35;9.80;73.20
20091;DHT22;10205;49.678;6.560;2024-02-28T09:44:03;9.90;73.20
20091;DHT22;10205;49.678;6.560;2024-02-28T09:46:33;9.90;73.10
20091;DHT22;10205;49.678;6.560;2024-02-28T09:49:02;9.80;73.10
20091;DHT22;10205;49.678;6.560;2024-02-28T09:51:35;9.80;73.10
20091;DHT22;10205;49.678;6.560;2024-02-28T09:54:03;9.80;73.10
20091;DHT22;10205;49.678;6.560;2024-02-28T09:56:30;9.80;73.00
20091;DHT22;10205;49.678;6.560;2024-02-28T09:58:59;9.80;72.90
20091;DHT22;10205;49.678;6.560;2024-02-28T10:01:28;9.80;73.00
20091;DHT22;10205;49.678;6.560;2024-02-28T10:03:56;9.80;73.00
20091;DHT22;10205;49.678;6.560;2024-02-28T10:06:25;9.80;72.90
20091;DHT22;10205;49.678;6.560;2024-02-28T10:08:54;9.80;72.80
20091;DHT22;10205;49.678;6.560;2024-02-28T10:11:22;9.80;73.00
20091;DHT22;10205;49.678;6.560;2024-02-28T10:13:52;9.80;73.10
20091;DHT22;10205;49.678;6.560;2024-02-28T10:16:20;9.80;73.00
20091;DHT22;10205;49.678;6.560;2024-02-28T10:18:47;9.80;72.90
20091;DHT22;10205;49.678;6.560;2024-02-28T10:21:14;9.80;72.90
20091;DHT22;10205;49.678;6.560;2024-02-28T10:23:44;9.90;73.00
20091;DHT22;10205;49.678;6.560;2024-02-28T10:26:13;9.90;73.20
20091;DHT22;10205;49.678;6.560;2024-02-28T10:28:40;9.90;73.20
20091;DHT22;10205;49.678;6.560;2024-02-28T10:31:09;9.90;74.00
20091;DHT22;10205;49.678;6.560;2024-02-28T10:33:37;9.90;73.20
20091;DHT22;10205;49.678;6.560;2024-02-28T10:36:05;9.90;73.20
20091;DHT22;10205;49.678;6.560;2024-02-28T10:38:33;9.90;73.20
20091;DHT22;10205;49.678;6.560;2024-02-28T10:41:01;9.90;73.20
20091;DHT22;10205;49.678;6.560;2024-02-28T10:43:31;9.90;73.00
20091;DHT22;10205;49.678;6.560;2024-02-28T10:46:00;9.90;73.20
20091;DHT22;10205;49.678;6.560;2024-02-28T10:48:28;10.00;73.20
20091;DHT22;10205;49.678;6.560;2024-02-28T10:50:55;10.00;73.20
20091;DHT22;10205;49.678;6.560;2024-02-28T10:53:30;10.00;73.20
20091;DHT22;10205;49.678;6.560;2024-02-28T10:56:03;10.00;73.20
20091;DHT22;10205;49.678;6.560;2024-02-28T10:58:35;10.00;73.20
20091;DHT22;10205;49.678;6.560;2024-02-28T11:01:03;10.10;73.00
20091;DHT22;10205;49.678;6.560;2024-02-28T11:03:32;10.10;73.00
20091;DHT22;10205;49.678;6.560;2024-02-28T11:05:59;10.10;73.20
20091;DHT22;10205;49.678;6.560;2024-02-28T11:08:29;10.10;73.20
20091;DHT22;10205;49.678;6.560;2024-02-28T11:10:58;10.20;73.10
20091;DHT22;10205;49.678;6.560;2024-02-28T11:13:30;10.20;73.10
20091;DHT22;10205;49.678;6.560;2024-02-28T11:16:09;10.20;73.10
20091;DHT22;10205;49.678;6.560;2024-02-28T11:18:36;10.30;73.10
20091;DHT22;10205;49.678;6.560;2024-02-28T11:21:15;10.30;73.00
20091;DHT22;10205;49.678;6.560;2024-02-28T11:23:45;10.30;72.70
20091;DHT22;10205;49.678;6.560;2024-02-28T11:26:13;10.30;72.50
20091;DHT22;10205;49.678;6.560;2024-02-28T11:28:41;10.30;72.30
20091;DHT22;10205;49.678;6.560;2024-02-28T11:31:09;10.30;72.30
20091;DHT22;10205;49.678;6.560;2024-02-28T11:33:37;10.40;72.30
20091;DHT22;10205;49.678;6.560;2024-02-28T11:36:04;10.40;72.30
20091;DHT22;10205;49.678;6.560;2024-02-28T11:38:34;10.40;72.30
20091;DHT22;10205;49.678;6.560;2024-02-28T11:41:03;10.40;72.20
20091;DHT22;10205;49.678;6.560;2024-02-28T11:43:31;10.40;72.20
20091;DHT22;10205;49.678;6.560;2024-02-28T11:45:58;10.40;72.40
20091;DHT22;10205;49.678;6.560;2024-02-28T11:48:27;10.40;72.70
20091;DHT22;10205;49.678;6.560;2024-02-28T11:50:54;10.50;72.80
20091;DHT22;10205;49.678;6.560;2024-02-28T11:53:24;10.50;72.90
20091;DHT22;10205;49.678;6.560;2024-02-28T11:55:52;10.60;72.80
20091;DHT22;10205;49.678;6.560;2024-02-28T11:58:21;10.60;72.80
20091;DHT22;10205;49.678;6.560;2024-02-28T12:00:49;10.70;72.90
20091;DHT22;10205;49.678;6.560;2024-02-28T12:03:21;10.70;72.90
20091;DHT22;10205;49.678;6.560;2024-02-28T12:05:50;10.80;73.00
20091;DHT22;10205;49.678;6.560;2024-02-28T12:08:19;10.80;72.90
20091;DHT22;10205;49.678;6.560;2024-02-28T12:10:46;10.90;72.80
20091;DHT22;10205;49.678;6.560;2024-02-28T12:13:16;11.00;72.80
20091;DHT22;10205;49.678;6.560;2024-02-28T12:15:44;11.00;72.80
20091;DHT22;10205;49.678;6.560;2024-02-28T12:18:12;11.10;72.60
20091;DHT22;10205;49.678;6.560;2024-02-28T12:20:41;11.10;72.10
20091;DHT22;10205;49.678;6.560;2024-02-28T12:23:09;11.20;72.30
20091;DHT22;10205;49.678;6.560;2024-02-28T12:25:36;11.20;72.20
20091;DHT22;10205;49.678;6.560;2024-02-28T12:28:05;11.30;72.40
20091;DHT22;10205;49.678;6.560;2024-02-28T12:30:39;11.30;73.40
20091;DHT22;10205;49.678;6.560;2024-02-28T12:33:08;11.40;72.60
20091;DHT22;10205;49.678;6.560;2024-02-28T12:35:39;11.40;72.50
20091;DHT22;10205;49.678;6.560;2024-02-28T12:38:07;11.50;71.90
20091;DHT22;10205;49.678;6.560;2024-02-28T12:40:36;11.50;72.00
20091;DHT22;10205;49.678;6.560;2024-02-28T12:43:03;11.50;72.20
20091;DHT22;10205;49.678;6.560;2024-02-28T12:45:30;11.60;72.20
20091;DHT22;10205;49.678;6.560;2024-02-28T12:47:58;11.60;72.10
20091;DHT22;10205;49.678;6.560;2024-02-28T12:50:26;11.70;72.00
20091;DHT22;10205;49.678;6.560;2024-02-28T12:52:53;11.70;71.70
20091;DHT22;10205;49.678;6.560;2024-02-28T12:55:20;11.70;71.60
20091;DHT22;10205;49.678;6.560;2024-02-28T12:57:49;11.80;71.40
20091;DHT22;10205;49.678;6.560;2024-02-28T13:00:16;11.80;71.40
20091;DHT22;10205;49.678;6.560;2024-02-28T13:02:44;11.80;71.20
20091;DHT22;10205;49.678;6.560;2024-02-28T13:05:11;11.90;71.20
20091;DHT22;10205;49.678;6.560;2024-02-28T13:07:39;11.90;71.30
20091;DHT22;10205;49.678;6.560;2024-02-28T13:10:07;12.00;71.30
20091;DHT22;10205;49.678;6.560;2024-02-28T13:12:35;12.00;70.90
20091;DHT22;10205;49.678;6.560;2024-02-28T13:15:06;12.00;70.70
20091;DHT22;10205;49.678;6.560;2024-02-28T13:17:34;12.10;70.50
20091;DHT22;10205;49.678;6.560;2024-02-28T13:20:01;12.10;70.50
20091;DHT22;10205;49.678;6.560;2024-02-28T13:22:29;12.10;70.30
20091;DHT22;10205;49.678;6.560;2024-02-28T13:24:56;12.20;70.40
20091;DHT22;10205;49.678;6.560;2024-02-28T13:27:23;12.10;70.30
20091;DHT22;10205;49.678;6.560;2024-02-28T13:29:50;12.20;70.20
20091;DHT22;10205;49.678;6.560;2024-02-28T13:32:19;12.20;70.20
20091;DHT22;10205;49.678;6.560;2024-02-28T13:34:46;12.20;70.10
20091;DHT22;10205;49.678;6.560;2024-02-28T13:37:13;12.20;70.00
20091;DHT22;10205;49.678;6.560;2024-02-28T13:39:40;12.20;70.00
20091;DHT22;10205;49.678;6.560;2024-02-28T13:42:07;12.20;69.80
20091;DHT22;10205;49.678;6.560;2024-02-28T13:44:35;12.20;69.80
20091;DHT22;10205;49.678;6.560;2024-02-28T13:47:03;12.20;70.00
20091;DHT22;10205;49.678;6.560;2024-02-28T13:49:32;12.20;70.00
20091;DHT22;10205;49.678;6.560;2024-02-28T13:51:59;12.20;70.00
20091;DHT22;10205;49.678;6.560;2024-02-28T13:54:27;12.20;70.00
20091;DHT22;10205;49.678;6.560;2024-02-28T13:56:56;12.20;69.70
20091;DHT22;10205;49.678;6.560;2024-02-28T13:59:24;12.30;69.70
20091;DHT22;10205;49.678;6.560;2024-02-28T14:01:51;12.30;69.70
20091;DHT22;10205;49.678;6.560;2024-02-28T14:04:18;12.30;70.40
20091;DHT22;10205;49.678;6.560;2024-02-28T14:06:47;12.30;69.50
20091;DHT22;10205;49.678;6.560;2024-02-28T14:09:14;12.30;69.30
20091;DHT22;10205;49.678;6.560;2024-02-28T14:11:41;12.30;69.30
20091;DHT22;10205;49.678;6.560;2024-02-28T14:14:10;12.40;69.30
20091;DHT22;10205;49.678;6.560;2024-02-28T14:16:37;12.40;69.40
20091;DHT22;10205;49.678;6.560;2024-02-28T14:19:07;12.40;69.50
20091;DHT22;10205;49.678;6.560;2024-02-28T14:21:34;12.40;69.30
20091;DHT22;10205;49.678;6.560;2024-02-28T14:24:02;12.40;69.20
20091;DHT22;10205;49.678;6.560;2024-02-28T14:26:30;12.40;69.10
20091;DHT22;10205;49.678;6.560;2024-02-28T14:28:57;12.40;69.20
20091;DHT22;10205;49.678;6.560;2024-02-28T14:31:25;12.50;69.20
20091;DHT22;10205;49.678;6.560;2024-02-28T14:33:52;12.50;70.00
20091;DHT22;10205;49.678;6.560;2024-02-28T14:36:20;12.50;69.20
20091;DHT22;10205;49.678;6.560;2024-02-28T14:38:47;12.50;69.30
20091;DHT22;10205;49.678;6.560;2024-02-28T14:41:15;12.60;69.40
20091;DHT22;10205;49.678;6.560;2024-02-28T14:43:42;12.60;69.30
20091;DHT22;10205;49.678;6.560;2024-02-28T14:46:09;12.60;69.40
20091;DHT22;10205;49.678;6.560;2024-02-28T14:48:42;12.60;69.50
20091;DHT22;10205;49.678;6.560;2024-02-28T14:51:15;12.60;69.60
20091;DHT22;10205;49.678;6.560;2024-02-28T14:53:43;12.60;69.60
20091;DHT22;10205;49.678;6.560;2024-02-28T14:56:11;12.60;69.60
20091;DHT22;10205;49.678;6.560;2024-02-28T14:58:39;12.60;69.60
20091;DHT22;10205;49.678;6.560;2024-02-28T15:01:06;12.70;69.80
20091;DHT22;10205;49.678;6.560;2024-02-28T15:03:34;12.70;69.60
20091;DHT22;10205;49.678;6.560;2024-02-28T15:06:01;12.70;69.60
20091;DHT22;10205;49.678;6.560;2024-02-28T15:08:28;12.70;69.60
20091;DHT22;10205;49.678;6.560;2024-02-28T15:10:55;12.70;69.50
20091;DHT22;10205;49.678;6.560;2024-02-28T15:13:23;12.70;70.20
20091;DHT22;10205;49.678;6.560;2024-02-28T15:15:51;12.70;69.30
20091;DHT22;10205;49.678;6.560;2024-02-28T15:18:18;12.70;69.20
20091;DHT22;10205;49.678;6.560;2024-02-28T15:20:45;12.70;69.00
20091;DHT22;10205;49.678;6.560;2024-02-28T15:23:12;12.80;69.00
20091;DHT22;10205;49.678;6.560;2024-02-28T15:25:39;12.80;68.80
20091;DHT22;10205;49.678;6.560;2024-02-28T15:28:06;12.80;68.70
20091;DHT22;10205;49.678;6.560;2024-02-28T15:30:33;12.80;68.40
20091;DHT22;10205;49.678;6.560;2024-02-28T15:33:02;12.80;68.60
20091;DHT22;10205;49.678;6.560;2024-02-28T15:35:30;12.80;68.60
20091;DHT22;10205;49.678;6.560;2024-02-28T15:37:57;12.80;68.60